createdAt,value
2019-04-20T00:01:26.160Z,4.10
2019-04-20T00:03:51.907Z,4.50
2019-04-20T00:06:21.482Z,4.07
2019-04-20T00:08:55.486Z,4.10
2019-04-20T00:11:27.589Z,4.10
2019-04-20T00:13:59.911Z,7.00
2019-04-20T00:16:21.422Z,6.10
2019-04-20T00:18:54.868Z,4.43
2019-04-20T00:21:43.126Z,4.30
2019-04-20T00:24:20.042Z,3.83
2019-04-20T00:27:11.714Z,4.93
2019-04-20T00:29:38.040Z,4.20
2019-04-20T00:32:00.491Z,3.97
2019-04-20T00:34:23.054Z,5.13
2019-04-20T00:36:47.463Z,6.20
2019-04-20T00:39:18.509Z,4.27
2019-04-20T00:41:54.882Z,4.10
2019-04-20T00:44:24.261Z,4.80
2019-04-20T00:47:06.083Z,4.17
2019-04-20T00:49:32.221Z,4.37
2019-04-20T00:52:18.673Z,4.17
2019-04-20T00:54:20.121Z,4.67
2019-04-20T00:56:49.872Z,4.50
2019-04-20T00:59:31.674Z,4.00
2019-04-20T01:02:09.671Z,4.07
2019-04-20T01:04:46.195Z,4.30
2019-04-20T01:07:19.509Z,4.50
2019-04-20T01:09:56.282Z,4.17
2019-04-20T01:12:28.585Z,4.10
2019-04-20T01:15:02.300Z,4.47
2019-04-20T01:17:26.507Z,4.73
2019-04-20T01:19:55.169Z,4.67
2019-04-20T01:22:27.287Z,4.07
2019-04-20T01:24:55.019Z,4.87
2019-04-20T01:27:37.673Z,4.13
2019-04-20T01:30:07.067Z,4.37
2019-04-20T01:32:34.460Z,4.33
2019-04-20T01:35:09.999Z,4.60
2019-04-20T01:37:36.015Z,4.50
2019-04-20T01:39:59.216Z,4.50
2019-04-20T01:42:27.538Z,4.53
2019-04-20T01:44:58.321Z,4.43
2019-04-20T01:47:32.089Z,4.17
2019-04-20T01:50:03.373Z,3.87
2019-04-20T01:52:39.615Z,8.57
2019-04-20T01:55:23.008Z,4.90
2019-04-20T01:57:57.860Z,4.40
2019-04-20T02:00:35.245Z,4.60
2019-04-20T02:03:30.540Z,5.13
2019-04-20T02:05:59.116Z,6.93
2019-04-20T02:08:27.455Z,4.70
2019-04-20T02:10:58.659Z,4.87
2019-04-20T02:13:26.396Z,4.63
2019-04-20T02:15:59.007Z,5.23
2019-04-20T02:18:36.722Z,4.70
2019-04-20T02:21:16.593Z,4.60
2019-04-20T02:23:35.691Z,5.40
2019-04-20T02:25:56.694Z,4.90
2019-04-20T02:28:46.473Z,4.50
2019-04-20T02:31:32.856Z,4.80
2019-04-20T02:34:19.848Z,4.57
2019-04-20T02:36:53.192Z,5.17
2019-04-20T02:42:05.415Z,4.77
2019-04-20T02:44:56.482Z,5.03
2019-04-20T02:46:55.972Z,4.93
2019-04-20T02:51:52.420Z,4.80
2019-04-20T02:54:26.495Z,4.70
2019-04-20T03:01:45.101Z,8.13
2019-04-20T03:04:00.741Z,5.03
2019-04-20T03:06:37.532Z,4.87
2019-04-20T03:09:22.550Z,4.83
2019-04-20T03:12:04.870Z,4.80
2019-04-20T03:14:13.727Z,4.90
2019-04-20T03:16:45.546Z,5.10
2019-04-20T03:19:14.568Z,4.83
2019-04-20T03:21:52.641Z,5.00
2019-04-20T03:24:26.744Z,5.30
2019-04-20T03:26:57.027Z,5.17
2019-04-20T03:29:58.966Z,5.13
2019-04-20T03:33:00.375Z,5.03
2019-04-20T03:35:12.159Z,5.23
2019-04-20T03:37:38.215Z,5.07
2019-04-20T03:39:56.730Z,5.43
2019-04-20T03:42:12.919Z,4.80
2019-04-20T03:44:50.117Z,5.43
2019-04-20T03:47:25.440Z,5.50
2019-04-20T03:50:07.251Z,5.43
2019-04-20T03:52:49.731Z,5.47
2019-04-20T03:55:19.853Z,5.30
2019-04-20T03:58:02.934Z,5.43
2019-04-20T04:00:43.432Z,5.17
2019-04-20T04:05:50.902Z,5.57
2019-04-20T04:08:17.056Z,5.57
2019-04-20T04:11:00.043Z,5.70
2019-04-20T04:13:12.071Z,5.60
2019-04-20T04:15:46.552Z,5.40
2019-04-20T04:18:17.731Z,5.20
2019-04-20T04:20:50.061Z,5.00
2019-04-20T04:23:28.689Z,6.10
2019-04-20T04:26:00.846Z,5.23
2019-04-20T04:28:29.872Z,5.47
2019-04-20T04:31:05.181Z,5.53
2019-04-20T04:33:54.908Z,5.37
2019-04-20T04:36:01.074Z,5.20
2019-04-20T04:38:37.649Z,6.00
2019-04-20T04:43:35.950Z,5.30
2019-04-20T04:45:46.950Z,5.90
2019-04-20T04:48:23.801Z,5.03
2019-04-20T04:50:55.376Z,7.07
2019-04-20T04:53:27.162Z,5.47
2019-04-20T04:55:54.638Z,5.83
2019-04-20T04:58:19.415Z,5.30
2019-04-20T05:00:49.345Z,5.40
2019-04-20T05:03:35.387Z,5.87
2019-04-20T05:06:18.716Z,5.87
2019-04-20T05:08:37.741Z,5.90
2019-04-20T05:11:00.651Z,5.30
2019-04-20T05:13:36.825Z,5.93
2019-04-20T05:16:13.006Z,5.10
2019-04-20T05:19:10.071Z,5.47
2019-04-20T05:21:55.153Z,5.60
2019-04-20T05:24:23.170Z,6.03
2019-04-20T05:27:07.173Z,6.00
2019-04-20T05:29:24.037Z,5.17
2019-04-20T05:31:53.725Z,5.47
2019-04-20T05:34:40.348Z,4.97
2019-04-20T05:37:15.061Z,5.53
2019-04-20T05:39:39.947Z,7.40
2019-04-20T05:42:09.553Z,5.70
2019-04-20T05:44:45.571Z,5.27
2019-04-20T05:47:14.187Z,5.07
2019-04-20T05:49:40.203Z,4.90
2019-04-20T05:52:24.075Z,5.30
2019-04-20T05:54:46.048Z,5.67
2019-04-20T05:57:22.524Z,5.73
2019-04-20T05:59:51.582Z,7.57
2019-04-20T06:02:17.953Z,7.93
2019-04-20T06:07:21.436Z,5.43
2019-04-20T06:09:46.383Z,5.57
2019-04-20T06:15:06.861Z,4.90
2019-04-20T06:17:59.431Z,6.93
2019-04-20T06:20:33.368Z,5.90
2019-04-20T06:23:11.908Z,6.47
2019-04-20T06:25:55.852Z,5.87
2019-04-20T06:28:12.580Z,5.63
2019-04-20T06:30:41.676Z,5.70
2019-04-20T06:34:09.143Z,6.73
2019-04-20T06:39:02.669Z,5.77
2019-04-20T06:41:38.002Z,5.97
2019-04-20T06:44:02.150Z,5.87
2019-04-20T06:46:31.592Z,5.30
2019-04-20T06:48:59.266Z,7.93
2019-04-20T06:51:27.702Z,6.93
2019-04-20T06:53:57.681Z,7.13
2019-04-20T06:56:45.868Z,5.97
2019-04-20T06:59:11.936Z,5.93
2019-04-20T07:01:48.867Z,5.77
2019-04-20T07:04:33.494Z,6.30
2019-04-20T07:09:16.965Z,40.57
2019-04-20T07:11:42.583Z,43.97
2019-04-20T07:13:59.226Z,37.53
2019-04-20T07:17:17.949Z,28.83
2019-04-20T07:19:44.417Z,30.73
2019-04-20T07:25:01.298Z,25.40
2019-04-20T07:27:30.828Z,30.60
2019-04-20T07:30:03.818Z,30.00
2019-04-20T07:32:26.013Z,31.60
2019-04-20T07:35:06.321Z,25.93
2019-04-20T07:40:15.170Z,24.40
2019-04-20T07:42:46.805Z,20.43
2019-04-20T07:45:22.926Z,20.20
2019-04-20T07:47:50.845Z,20.90
2019-04-20T07:50:16.033Z,18.27
2019-04-20T07:52:38.697Z,18.00
2019-04-20T07:55:33.959Z,22.93
2019-04-20T07:57:42.909Z,17.57
2019-04-20T08:00:21.452Z,15.63
2019-04-20T08:03:08.922Z,14.80
2019-04-20T08:05:52.707Z,16.67
2019-04-20T08:08:30.891Z,15.70
2019-04-20T08:11:01.280Z,16.30
2019-04-20T08:16:06.594Z,13.40
2019-04-20T08:18:40.019Z,18.80
2019-04-20T08:21:02.684Z,15.57
2019-04-20T08:23:33.515Z,13.37
2019-04-20T08:25:56.877Z,11.53
2019-04-20T08:28:29.394Z,10.37
2019-04-20T08:31:35.954Z,12.57
2019-04-20T08:34:24.301Z,13.50
2019-04-20T08:36:47.785Z,9.93
2019-04-20T08:41:54.296Z,8.60
2019-04-20T08:44:39.701Z,11.13
2019-04-20T08:47:01.613Z,9.43
2019-04-20T08:49:26.497Z,8.57
2019-04-20T08:52:51.416Z,7.10
2019-04-20T08:54:58.126Z,6.50
2019-04-20T08:57:06.985Z,9.87
2019-04-20T08:59:36.684Z,6.93
2019-04-20T09:02:11.516Z,7.60
2019-04-20T09:04:45.202Z,7.80
2019-04-20T09:07:15.258Z,6.63
2019-04-20T09:10:00.815Z,7.23
2019-04-20T09:12:30.812Z,8.43
2019-04-20T09:14:40.226Z,7.03
2019-04-20T09:17:27.226Z,7.53
2019-04-20T09:19:57.850Z,7.10
2019-04-20T09:22:41.212Z,6.37
2019-04-20T09:27:44.935Z,6.60
2019-04-20T09:30:18.804Z,7.07
2019-04-20T09:32:56.617Z,6.27
2019-04-20T09:35:31.253Z,6.50
2019-04-20T09:38:05.158Z,6.77
2019-04-20T09:40:42.981Z,6.37
2019-04-20T09:43:06.943Z,5.67
2019-04-20T09:45:52.274Z,6.93
2019-04-20T09:48:25.208Z,6.77
2019-04-20T09:51:02.266Z,7.30
2019-04-20T09:53:30.137Z,8.03
2019-04-20T09:56:06.256Z,5.83
2019-04-20T09:58:30.915Z,6.93
2019-04-20T10:01:04.424Z,5.80
2019-04-20T10:03:20.536Z,5.70
2019-04-20T10:05:49.706Z,5.73
2019-04-20T10:08:19.633Z,6.53
2019-04-20T10:10:49.461Z,5.53
2019-04-20T10:13:19.539Z,5.80
2019-04-20T10:15:49.979Z,7.00
2019-04-20T10:18:19.740Z,5.67
2019-04-20T10:20:49.591Z,6.87
2019-04-20T10:23:18.881Z,7.03
2019-04-20T10:25:48.787Z,5.77
2019-04-20T10:28:19.366Z,5.97
2019-04-20T10:30:48.420Z,6.00
2019-04-20T10:33:17.638Z,6.40
2019-04-20T10:35:47.669Z,5.60
2019-04-20T10:38:23.411Z,5.77
2019-04-20T10:41:03.444Z,5.77
2019-04-20T10:43:23.863Z,5.47
2019-04-20T10:45:53.075Z,6.07
2019-04-20T10:48:21.785Z,5.97
2019-04-20T10:50:50.570Z,5.80
2019-04-20T10:53:19.678Z,5.77
2019-04-20T10:55:49.491Z,5.40
2019-04-20T10:58:19.660Z,6.60
2019-04-20T11:00:50.112Z,5.80
2019-04-20T11:03:19.750Z,6.27
2019-04-20T11:05:49.092Z,5.67
2019-04-20T11:08:17.864Z,5.43
2019-04-20T11:10:57.909Z,5.77
2019-04-20T11:13:17.265Z,5.90
2019-04-20T11:15:46.468Z,5.53
2019-04-20T11:18:15.525Z,6.70
2019-04-20T11:20:45.617Z,5.43
2019-04-20T11:23:15.845Z,5.70
2019-04-20T11:25:46.302Z,6.63
2019-04-20T11:28:16.632Z,5.93
2019-04-20T11:30:46.110Z,6.00
2019-04-20T11:33:16.136Z,5.30
2019-04-20T11:35:46.885Z,5.37
2019-04-20T11:38:17.400Z,5.77
2019-04-20T11:40:48.245Z,5.50
2019-04-20T11:43:17.824Z,5.70
2019-04-20T11:45:46.808Z,5.60
2019-04-20T11:48:15.827Z,5.47
2019-04-20T11:50:45.448Z,5.53
2019-04-20T11:53:15.343Z,7.33
2019-04-20T11:55:44.833Z,5.50
2019-04-20T11:58:14.241Z,5.40
2019-04-20T12:00:57.537Z,5.53
2019-04-20T12:03:27.344Z,6.37
2019-04-20T12:05:53.746Z,5.20
2019-04-20T12:08:20.769Z,5.13
2019-04-20T12:10:55.866Z,4.93
2019-04-20T12:13:20.628Z,4.90
2019-04-20T12:15:49.665Z,5.13
2019-04-20T12:18:19.825Z,5.00
2019-04-20T12:20:50.359Z,5.00
2019-04-20T12:23:20.235Z,5.43
2019-04-20T12:25:50.193Z,5.43
2019-04-20T12:28:19.854Z,4.77
2019-04-20T12:30:49.391Z,4.53
2019-04-20T12:33:18.094Z,4.90
2019-04-20T12:35:48.038Z,5.33
2019-04-20T12:38:17.462Z,4.90
2019-04-20T12:40:46.245Z,4.80
2019-04-20T12:43:15.220Z,5.27
2019-04-20T12:45:44.746Z,4.80
2019-04-20T12:48:13.585Z,5.10
2019-04-20T12:50:43.697Z,4.60
2019-04-20T12:53:12.951Z,5.00
2019-04-20T12:55:41.677Z,4.93
2019-04-20T12:58:10.588Z,5.10
2019-04-20T13:00:43.829Z,5.07
2019-04-20T13:03:13.745Z,4.80
2019-04-20T13:05:43.617Z,4.83
2019-04-20T13:08:20.707Z,4.63
2019-04-20T13:10:46.538Z,4.87
2019-04-20T13:13:36.562Z,4.80
2019-04-20T13:16:16.470Z,4.57
2019-04-20T13:18:55.239Z,4.70
2019-04-20T13:21:25.051Z,4.33
2019-04-20T13:23:56.235Z,4.67
2019-04-20T13:26:25.119Z,4.60
2019-04-20T13:28:55.096Z,5.17
2019-04-20T13:31:24.209Z,4.77
2019-04-20T13:33:53.013Z,4.80
2019-04-20T13:36:22.092Z,4.47
2019-04-20T13:38:52.257Z,4.83
2019-04-20T13:41:22.057Z,4.77
2019-04-20T13:43:51.217Z,4.70
2019-04-20T13:46:20.834Z,4.97
2019-04-20T13:48:51.065Z,4.53
2019-04-20T13:51:21.034Z,4.77
2019-04-20T13:53:51.010Z,4.60
2019-04-20T13:56:21.782Z,4.67
2019-04-20T13:59:21.848Z,4.07
2019-04-20T14:02:11.697Z,3.83
2019-04-20T14:04:48.679Z,4.33
2019-04-20T14:07:19.123Z,4.70
2019-04-20T14:09:48.284Z,5.60
2019-04-20T14:12:25.181Z,4.20
2019-04-20T14:14:48.848Z,4.30
2019-04-20T14:17:19.100Z,4.40
2019-04-20T14:19:49.210Z,4.40
2019-04-20T14:22:24.873Z,5.33
2019-04-20T14:24:55.046Z,4.20
2019-04-20T14:27:24.596Z,4.53
2019-04-20T14:29:55.020Z,4.33
2019-04-20T14:32:24.996Z,4.10
2019-04-20T14:34:54.290Z,4.47
2019-04-20T14:37:23.066Z,4.10
2019-04-20T14:39:52.322Z,4.20
2019-04-20T14:42:30.415Z,4.53
2019-04-20T14:44:52.064Z,4.53
2019-04-20T14:47:21.725Z,4.50
2019-04-20T14:49:52.613Z,4.63
2019-04-20T14:52:21.795Z,4.37
2019-04-20T14:54:50.582Z,5.33
2019-04-20T14:57:19.392Z,4.57
2019-04-20T14:59:53.787Z,5.17
2019-04-20T15:02:25.812Z,5.00
2019-04-20T15:04:54.973Z,5.00
2019-04-20T15:07:24.644Z,5.37
2019-04-20T15:09:54.985Z,5.00
2019-04-20T15:12:37.856Z,4.97
2019-04-20T15:14:56.600Z,5.70
2019-04-20T15:17:37.584Z,4.93
2019-04-20T15:20:21.401Z,5.23
2019-04-20T15:22:51.862Z,5.20
2019-04-20T15:25:21.302Z,4.97
2019-04-20T15:27:50.370Z,5.20
2019-04-20T15:30:20.491Z,4.63
2019-04-20T15:32:49.334Z,5.00
2019-04-20T15:35:19.742Z,5.37
2019-04-20T15:37:49.177Z,4.90
2019-04-20T15:40:19.317Z,4.93
2019-04-20T15:42:58.058Z,5.10
2019-04-20T15:45:19.148Z,4.87
2019-04-20T15:47:48.037Z,4.70
2019-04-20T15:50:18.064Z,5.10
2019-04-20T15:52:50.927Z,5.10
2019-04-20T15:55:24.554Z,5.17
2019-04-20T15:57:48.251Z,4.93
2019-04-20T16:00:18.432Z,4.90
2019-04-20T16:02:59.137Z,4.90
2019-04-20T16:05:41.246Z,4.93
2019-04-20T16:08:28.253Z,5.33
2019-04-20T16:10:59.232Z,4.80
2019-04-20T16:13:36.028Z,4.60
2019-04-20T16:15:59.587Z,5.93
2019-04-20T16:18:28.473Z,5.53
2019-04-20T16:21:05.536Z,5.17
2019-04-20T16:23:30.432Z,4.80
2019-04-20T16:26:31.597Z,5.07
2019-04-20T16:29:01.842Z,4.77
2019-04-20T16:31:31.135Z,4.80
2019-04-20T16:34:01.069Z,5.23
2019-04-20T16:36:30.498Z,5.97
2019-04-20T16:39:00.040Z,5.00
2019-04-20T16:41:28.814Z,6.40
2019-04-20T16:43:57.570Z,5.60
2019-04-20T16:46:27.995Z,4.83
2019-04-20T16:48:57.050Z,5.03
2019-04-20T16:51:27.001Z,5.30
2019-04-20T16:53:56.280Z,5.03
2019-04-20T16:56:26.443Z,5.13
2019-04-20T16:59:01.462Z,4.70
2019-04-20T17:01:25.738Z,5.13
2019-04-20T17:04:01.818Z,5.13
2019-04-20T17:06:26.381Z,5.83
2019-04-20T17:08:56.609Z,4.93
2019-04-20T17:11:25.770Z,5.03
2019-04-20T17:13:58.005Z,5.20
2019-04-20T17:16:25.926Z,5.33
2019-04-20T17:18:55.469Z,5.07
2019-04-20T17:21:27.732Z,5.70
2019-04-20T17:23:55.465Z,5.17
2019-04-20T17:26:34.845Z,5.13
2019-04-20T17:29:15.930Z,4.67
2019-04-20T17:32:03.228Z,6.47
2019-04-20T17:34:46.880Z,4.97
2019-04-20T17:37:02.625Z,5.07
2019-04-20T17:39:45.558Z,4.63
2019-04-20T17:42:17.105Z,5.50
2019-04-20T17:44:47.279Z,4.83
2019-04-20T17:47:21.533Z,4.90
2019-04-20T17:49:51.306Z,5.20
2019-04-20T17:52:27.778Z,4.70
2019-04-20T17:54:53.447Z,5.43
2019-04-20T17:57:23.459Z,4.63
2019-04-20T18:00:03.082Z,4.30
2019-04-20T18:02:53.628Z,5.93
2019-04-20T18:05:37.035Z,6.30
2019-04-20T18:08:06.228Z,4.70
2019-04-20T18:10:31.231Z,5.13
2019-04-20T18:12:49.759Z,4.60
2019-04-20T18:15:31.421Z,5.27
2019-04-20T18:18:23.689Z,6.20
2019-04-20T18:20:56.854Z,5.80
2019-04-20T18:23:33.755Z,5.50
2019-04-20T18:26:18.539Z,4.20
2019-04-20T18:28:54.855Z,4.80
2019-04-20T18:31:09.620Z,5.07
2019-04-20T18:33:40.176Z,4.47
2019-04-20T18:36:14.307Z,4.63
2019-04-20T18:38:49.081Z,5.60
2019-04-20T18:41:20.995Z,4.33
2019-04-20T18:43:46.005Z,5.00
2019-04-20T18:46:29.395Z,4.63
2019-04-20T18:49:00.975Z,4.37
2019-04-20T18:51:12.093Z,4.20
2019-04-20T18:53:45.022Z,4.90
2019-04-20T18:56:12.264Z,5.13
2019-04-20T18:58:41.184Z,4.87
2019-04-20T19:01:10.752Z,4.77
2019-04-20T19:03:42.709Z,5.10
2019-04-20T19:06:11.230Z,5.50
2019-04-20T19:08:48.006Z,6.70
2019-04-20T19:11:17.703Z,9.60
2019-04-20T19:13:51.340Z,4.60
2019-04-20T19:16:33.426Z,4.80
2019-04-20T19:19:20.043Z,4.60
2019-04-20T19:21:40.026Z,5.13
2019-04-20T19:24:13.201Z,4.73
2019-04-20T19:26:46.633Z,5.33
2019-04-20T19:29:19.089Z,5.97
2019-04-20T19:31:56.942Z,4.40
2019-04-20T19:34:26.450Z,5.23
2019-04-20T19:36:57.145Z,5.20
2019-04-20T19:39:28.755Z,4.43
2019-04-20T19:41:51.762Z,5.30
2019-04-20T19:44:22.610Z,4.50
2019-04-20T19:47:09.119Z,5.30
2019-04-20T19:49:25.369Z,4.73
2019-04-20T19:52:16.069Z,4.87
2019-04-20T19:54:34.111Z,7.27
2019-04-20T19:56:58.544Z,4.80
2019-04-20T19:59:23.596Z,4.83
2019-04-20T20:01:45.633Z,6.60
2019-04-20T20:04:15.646Z,5.20
2019-04-20T20:06:51.090Z,6.00
2019-04-20T20:09:17.853Z,4.97
2019-04-20T20:11:46.755Z,4.73
2019-04-20T20:14:17.974Z,4.77
2019-04-20T20:17:05.393Z,6.60
2019-04-20T20:19:32.708Z,4.73
2019-04-20T20:22:02.705Z,5.27
2019-04-20T20:24:19.534Z,5.13
2019-04-20T20:26:53.494Z,4.93
2019-04-20T20:29:28.352Z,7.20
2019-04-20T20:32:02.007Z,4.73
2019-04-20T20:34:28.700Z,5.00
2019-04-20T20:36:54.577Z,5.30
2019-04-20T20:39:27.607Z,5.53
2019-04-20T20:42:04.872Z,7.87
2019-04-20T20:44:31.821Z,4.60
2019-04-20T20:47:00.867Z,6.77
2019-04-20T20:49:40.326Z,5.33
2019-04-20T20:52:12.298Z,5.03
2019-04-20T20:54:36.090Z,5.20
2019-04-20T20:57:02.843Z,5.30
2019-04-20T20:59:35.833Z,5.23
2019-04-20T21:02:05.796Z,5.53
2019-04-20T21:04:25.764Z,4.87
2019-04-20T21:06:55.110Z,5.07
2019-04-20T21:09:25.445Z,5.43
2019-04-20T21:12:01.822Z,4.93
2019-04-20T21:14:29.117Z,5.20
2019-04-20T21:17:02.936Z,4.80
2019-04-20T21:19:44.900Z,4.70
2019-04-20T21:22:04.804Z,4.83
2019-04-20T21:24:33.725Z,5.97
2019-04-20T21:27:07.881Z,4.80
2019-04-20T21:29:37.817Z,4.70
2019-04-20T21:32:09.382Z,4.53
2019-04-20T21:34:35.354Z,5.23
2019-04-20T21:37:11.601Z,4.43
2019-04-20T21:39:41.228Z,4.73
2019-04-20T21:42:11.754Z,4.97
2019-04-20T21:44:40.742Z,4.77
2019-04-20T21:47:07.220Z,4.93
2019-04-20T21:49:50.876Z,5.10
2019-04-20T21:52:18.305Z,5.20
2019-04-20T21:54:38.230Z,5.60
2019-04-20T21:57:10.974Z,4.93
2019-04-20T21:59:44.413Z,5.37
2019-04-20T22:02:17.184Z,5.87
2019-04-20T22:04:39.796Z,5.40
2019-04-20T22:07:08.580Z,6.07
2019-04-20T22:09:43.466Z,5.13
2019-04-20T22:12:07.858Z,6.00
2019-04-20T22:14:37.625Z,5.07
2019-04-20T22:17:07.848Z,5.37
2019-04-20T22:19:45.884Z,5.33
2019-04-20T22:22:18.651Z,5.53
2019-04-20T22:24:51.804Z,6.77
2019-04-20T22:27:15.837Z,5.33
2019-04-20T22:29:38.786Z,5.93
2019-04-20T22:32:10.210Z,7.60
2019-04-20T22:34:37.978Z,5.10
2019-04-20T22:37:09.785Z,8.00
2019-04-20T22:39:45.693Z,5.27
2019-04-20T22:42:13.347Z,5.37
2019-04-20T22:44:41.432Z,7.30
2019-04-20T22:47:13.968Z,5.77
2019-04-20T22:49:54.009Z,5.03
2019-04-20T22:52:27.793Z,5.70
2019-04-20T22:54:54.288Z,5.87
2019-04-20T22:57:27.754Z,5.60
2019-04-20T22:59:52.444Z,5.30
2019-04-20T23:02:13.488Z,5.27
2019-04-20T23:04:44.592Z,5.37
2019-04-20T23:07:14.756Z,5.83
2019-04-20T23:09:49.090Z,5.63
2019-04-20T23:12:18.982Z,6.67
2019-04-20T23:14:44.845Z,5.20
2019-04-20T23:17:18.415Z,4.80
2019-04-20T23:19:49.467Z,5.30
2019-04-20T23:22:16.055Z,5.00
2019-04-20T23:24:44.960Z,5.07
2019-04-20T23:27:20.023Z,5.67
2019-04-20T23:29:45.213Z,5.30
2019-04-20T23:32:17.416Z,7.37
2019-04-20T23:34:51.202Z,5.07
2019-04-20T23:37:20.498Z,6.07
2019-04-20T23:39:49.178Z,6.37
2019-04-20T23:42:21.832Z,5.73
2019-04-20T23:45:00.402Z,5.93
2019-04-20T23:47:45.735Z,6.10
2019-04-20T23:50:32.614Z,5.57
2019-04-20T23:53:01.353Z,5.30
2019-04-20T23:55:13.987Z,6.30
2019-04-20T23:57:46.099Z,5.33
